Time,TemperatureF,DewpointF,PressureIn,WindDirection,WindDirectionDegrees,WindSpeedMPH,WindSpeedGustMPH,Humidity,HourlyPrecipIn,Conditions,Clouds,dailyrainin,SoftwareType,DateUTC
2013-07-11 00:01:00,68.9,67.1,28.15,SW,225,2.0,2.0,94,0.00,,,0.12,meteohub,2013-07-11 04:01:00,
2013-07-11 00:02:00,68.9,67.1,28.15,West,270,2.0,2.0,94,0.00,,,0.12,meteohub,2013-07-11 04:02:00,
2013-07-11 00:07:00,68.9,67.1,28.15,East,90,3.0,3.0,94,0.00,,,0.00,meteohub,2013-07-11 04:07:00,
2013-07-11 00:12:00,68.7,66.9,28.15,South,180,1.0,3.0,94,0.00,,,0.00,meteohub,2013-07-11 04:12:00,
2013-07-11 00:17:00,68.7,66.9,28.14,NW,315,2.0,4.0,94,0.00,,,0.00,meteohub,2013-07-11 04:17:00,
2013-07-11 00:22:00,69.1,67.3,28.14,South,180,2.0,4.0,94,0.00,,,0.00,meteohub,2013-07-11 04:22:00,
2013-07-11 00:27:00,69.1,67.3,28.14,East,90,2.0,4.0,94,0.00,,,0.00,meteohub,2013-07-11 04:27:00,
2013-07-11 00:32:00,69.1,67.3,28.13,SW,225,2.0,3.0,94,0.00,,,0.00,meteohub,2013-07-11 04:32:00,
2013-07-11 00:37:00,69.1,67.6,28.13,NE,45,4.0,4.0,95,0.00,,,0.00,meteohub,2013-07-11 04:37:00,
2013-07-11 00:42:00,69.6,68.2,28.14,East,90,2.0,4.0,95,0.00,,,0.00,meteohub,2013-07-11 04:42:00,
2013-07-11 00:47:00,70.9,68.7,28.13,North,0,8.0,8.0,93,0.00,,,0.00,meteohub,2013-07-11 04:47:00,
2013-07-11 00:52:00,72.7,68.9,28.13,NE,45,7.0,15.0,88,0.00,,,0.00,meteohub,2013-07-11 04:52:00,
2013-07-11 00:57:00,74.3,68.7,28.14,NW,315,6.0,15.0,83,0.00,,,0.00,meteohub,2013-07-11 04:57:00,
2013-07-11 01:02:00,75.0,68.0,28.13,NW,315,9.0,15.0,79,0.00,,,0.00,meteohub,2013-07-11 05:02:00,
2013-07-11 01:07:00,75.0,67.3,28.13,North,0,11.0,18.0,77,0.00,,,0.00,meteohub,2013-07-11 05:07:00,
2013-07-11 01:12:00,75.2,66.4,28.13,North,0,2.0,18.0,74,0.00,,,0.00,meteohub,2013-07-11 05:12:00,
2013-07-11 01:17:00,75.0,66.9,28.13,NW,315,3.0,11.0,76,0.00,,,0.00,meteohub,2013-07-11 05:17:00,
2013-07-11 01:22:00,74.7,66.6,28.12,NE,45,2.0,11.0,76,0.00,,,0.00,meteohub,2013-07-11 05:22:00,
2013-07-11 01:27:00,74.5,66.7,28.12,NW,315,2.0,9.0,77,0.00,,,0.00,meteohub,2013-07-11 05:27:00,
2013-07-11 01:32:00,74.1,66.4,28.12,SW,225,2.0,7.0,77,0.00,,,0.00,meteohub,2013-07-11 05:32:00,
2013-07-11 01:38:00,73.8,66.0,28.12,SW,225,2.0,7.0,77,0.00,,,0.00,meteohub,2013-07-11 05:38:00,
2013-07-11 01:43:00,73.9,64.8,28.12,North,0,7.0,8.0,73,0.00,,,0.00,meteohub,2013-07-11 05:43:00,
2013-07-11 01:48:00,74.3,65.1,28.12,NE,45,4.0,13.0,73,0.00,,,0.00,meteohub,2013-07-11 05:48:00,
2013-07-11 01:53:00,74.3,65.1,28.12,NNE,23,7.0,13.0,73,0.00,,,0.00,meteohub,2013-07-11 05:53:00,
2013-07-11 01:58:00,74.1,65.3,28.12,North,0,2.0,13.0,74,0.00,,,0.00,meteohub,2013-07-11 05:58:00,
2013-07-11 02:03:00,73.8,65.3,28.12,SW,225,1.0,8.0,75,0.00,,,0.00,meteohub,2013-07-11 06:03:00,
2013-07-11 02:08:00,73.2,65.1,28.13,NW,315,1.0,8.0,76,0.00,,,0.00,meteohub,2013-07-11 06:08:00,
2013-07-11 02:13:00,72.9,65.3,28.13,West,270,0.0,4.0,77,0.00,,,0.00,meteohub,2013-07-11 06:13:00,
2013-07-11 02:18:00,72.7,65.5,28.13,West,270,1.0,2.0,78,0.00,,,0.00,meteohub,2013-07-11 06:18:00,
2013-07-11 02:23:00,72.3,65.1,28.13,NW,315,0.0,2.0,78,0.00,,,0.00,meteohub,2013-07-11 06:23:00,
2013-07-11 02:28:00,72.1,65.3,28.13,NE,45,0.0,2.0,79,0.00,,,0.00,meteohub,2013-07-11 06:28:00,
2013-07-11 02:33:00,72.1,65.3,28.13,NE,45,0.0,1.0,79,0.00,,,0.00,meteohub,2013-07-11 06:33:00,
2013-07-11 02:38:00,72.0,65.5,28.13,South,180,2.0,2.0,80,0.00,,,0.00,meteohub,2013-07-11 06:38:00,
2013-07-11 02:43:00,71.4,65.7,28.13,West,270,0.0,2.0,82,0.00,,,0.00,meteohub,2013-07-11 06:43:00,
2013-07-11 02:49:00,71.1,65.3,28.14,West,270,0.0,2.0,82,0.00,,,0.00,meteohub,2013-07-11 06:49:00,
2013-07-11 02:54:00,70.9,65.5,28.14,NE,45,1.0,2.0,83,0.00,,,0.00,meteohub,2013-07-11 06:54:00,
2013-07-11 02:59:00,70.5,65.5,28.14,SSW,203,1.0,2.0,84,0.00,,,0.00,meteohub,2013-07-11 06:59:00,
2013-07-11 03:04:00,70.3,65.3,28.14,SW,225,0.0,2.0,84,0.00,,,0.00,meteohub,2013-07-11 07:04:00,
2013-07-11 03:09:00,70.0,65.3,28.14,South,180,0.0,2.0,85,0.00,,,0.00,meteohub,2013-07-11 07:09:00,
2013-07-11 03:14:00,69.8,65.5,28.14,South,180,0.0,2.0,86,0.00,,,0.00,meteohub,2013-07-11 07:14:00,
2013-07-11 03:19:00,69.6,65.7,28.14,South,180,0.0,2.0,87,0.00,,,0.00,meteohub,2013-07-11 07:19:00,
2013-07-11 03:24:00,69.4,65.7,28.14,South,180,0.0,2.0,88,0.00,,,0.00,meteohub,2013-07-11 07:24:00,
2013-07-11 03:29:00,69.3,65.8,28.14,North,0,0.0,2.0,89,0.00,,,0.00,meteohub,2013-07-11 07:29:00,
2013-07-11 03:34:00,69.1,65.7,28.14,SE,135,0.0,1.0,89,0.00,,,0.00,meteohub,2013-07-11 07:34:00,
2013-07-11 03:39:00,68.9,65.8,28.14,East,90,1.0,1.0,90,0.00,,,0.00,meteohub,2013-07-11 07:39:00,
2013-07-11 03:44:00,68.7,65.7,28.14,SE,135,2.0,2.0,90,0.00,,,0.00,meteohub,2013-07-11 07:44:00,
2013-07-11 03:49:00,68.5,65.5,28.15,SE,135,1.0,2.0,90,0.00,,,0.00,meteohub,2013-07-11 07:49:00,
2013-07-11 03:54:00,68.2,65.5,28.15,South,180,0.0,2.0,91,0.00,,,0.00,meteohub,2013-07-11 07:54:00,
2013-07-11 04:00:00,68.2,65.5,28.15,NE,45,1.0,2.0,91,0.00,,,0.00,meteohub,2013-07-11 08:00:00,
2013-07-11 04:05:00,68.0,65.3,28.15,SE,135,0.0,2.0,91,0.00,,,0.00,meteohub,2013-07-11 08:05:00,
2013-07-11 04:10:00,68.0,65.3,28.16,North,0,2.0,2.0,91,0.00,,,0.00,meteohub,2013-07-11 08:10:00,
2013-07-11 04:15:00,67.8,65.5,28.16,North,0,0.0,2.0,92,0.00,,,0.00,meteohub,2013-07-11 08:15:00,
2013-07-11 04:20:00,67.6,65.3,28.17,NW,315,0.0,2.0,92,0.00,,,0.00,meteohub,2013-07-11 08:20:00,
2013-07-11 04:25:00,67.6,65.3,28.17,North,0,1.0,2.0,92,0.00,,,0.00,meteohub,2013-07-11 08:25:00,
2013-07-11 04:30:00,67.6,65.5,28.17,North,0,1.0,2.0,93,0.00,,,0.00,meteohub,2013-07-11 08:30:00,
2013-07-11 04:35:00,67.6,65.5,28.17,North,0,2.0,2.0,93,0.00,,,0.00,meteohub,2013-07-11 08:35:00,
2013-07-11 04:40:00,67.5,65.3,28.17,NW,315,2.0,2.0,93,0.00,,,0.00,meteohub,2013-07-11 08:40:00,
2013-07-11 04:45:00,67.5,65.3,28.17,North,0,1.0,2.0,93,0.00,,,0.00,meteohub,2013-07-11 08:45:00,
2013-07-11 04:50:00,67.5,65.3,28.16,NE,45,0.0,2.0,93,0.00,,,0.00,meteohub,2013-07-11 08:50:00,
2013-07-11 04:55:00,67.5,65.7,28.16,NE,45,0.0,2.0,94,0.00,,,0.00,meteohub,2013-07-11 08:55:00,
2013-07-11 05:00:00,67.5,65.7,28.17,South,180,0.0,2.0,94,0.00,,,0.00,meteohub,2013-07-11 09:00:00,
2013-07-11 05:05:00,67.5,65.7,28.17,SE,135,0.0,0.0,94,0.00,,,0.00,meteohub,2013-07-11 09:05:00,
2013-07-11 05:11:00,67.5,65.7,28.17,SE,135,0.0,0.0,94,0.00,,,0.00,meteohub,2013-07-11 09:11:00,
2013-07-11 05:16:00,67.3,65.5,28.17,SE,135,0.0,0.0,94,0.00,,,0.00,meteohub,2013-07-11 09:16:00,
2013-07-11 05:21:00,67.3,65.5,28.17,East,90,0.0,1.0,94,0.00,,,0.00,meteohub,2013-07-11 09:21:00,
2013-07-11 05:26:00,67.3,65.5,28.17,East,90,0.0,1.0,94,0.00,,,0.00,meteohub,2013-07-11 09:26:00,
2013-07-11 05:31:00,67.3,65.5,28.17,East,90,0.0,1.0,94,0.00,,,0.00,meteohub,2013-07-11 09:31:00,
2013-07-11 05:36:00,67.1,65.3,28.18,West,270,0.0,0.0,94,0.00,,,0.00,meteohub,2013-07-11 09:36:00,
2013-07-11 05:41:00,67.1,65.3,28.18,NW,315,1.0,2.0,94,0.00,,,0.00,meteohub,2013-07-11 09:41:00,
2013-07-11 05:46:00,67.1,65.3,28.18,NW,315,2.0,3.0,94,0.00,,,0.00,meteohub,2013-07-11 09:46:00,
2013-07-11 05:51:00,67.1,65.3,28.18,NW,315,2.0,3.0,94,0.00,,,0.00,meteohub,2013-07-11 09:51:00,
2013-07-11 05:56:00,67.3,65.8,28.18,North,0,2.0,3.0,95,0.00,,,0.00,meteohub,2013-07-11 09:56:00,
2013-07-11 06:01:00,67.3,65.8,28.18,North,0,2.0,3.0,95,0.00,,,0.00,meteohub,2013-07-11 10:01:00,
2013-07-11 06:06:00,67.3,65.5,28.18,NW,315,2.0,3.0,94,0.00,,,0.00,meteohub,2013-07-11 10:06:00,
2013-07-11 06:11:00,67.5,65.7,28.17,North,0,2.0,3.0,94,0.00,,,0.00,meteohub,2013-07-11 10:11:00,
2013-07-11 06:16:00,67.3,65.5,28.18,NW,315,2.0,3.0,94,0.00,,,0.00,meteohub,2013-07-11 10:16:00,
2013-07-11 06:22:00,67.3,65.5,28.18,West,270,1.0,3.0,94,0.00,,,0.00,meteohub,2013-07-11 10:22:00,
2013-07-11 06:27:00,67.3,65.5,28.18,West,270,1.0,2.0,94,0.00,,,0.00,meteohub,2013-07-11 10:27:00,
2013-07-11 06:32:00,67.1,65.3,28.18,West,270,0.0,2.0,94,0.00,,,0.00,meteohub,2013-07-11 10:32:00,
2013-07-11 06:37:00,67.1,65.3,28.19,NW,315,1.0,2.0,94,0.00,,,0.00,meteohub,2013-07-11 10:37:00,
2013-07-11 06:42:00,67.1,64.9,28.19,West,270,0.0,2.0,93,0.00,,,0.00,meteohub,2013-07-11 10:42:00,
2013-07-11 06:47:00,67.1,64.9,28.19,North,0,2.0,2.0,93,0.00,,,0.00,meteohub,2013-07-11 10:47:00,
2013-07-11 06:52:00,66.9,64.8,28.19,NW,315,1.0,2.0,93,0.00,,,0.00,meteohub,2013-07-11 10:52:00,
2013-07-11 06:57:00,66.9,64.8,28.19,NW,315,1.0,2.0,93,0.00,,,0.00,meteohub,2013-07-11 10:57:00,
2013-07-11 07:02:00,66.9,64.8,28.20,NW,315,0.0,2.0,93,0.00,,,0.00,meteohub,2013-07-11 11:02:00,
2013-07-11 07:07:00,66.7,64.6,28.20,NW,315,2.0,2.0,93,0.00,,,0.00,meteohub,2013-07-11 11:07:00,
2013-07-11 07:12:00,66.7,64.6,28.20,NW,315,2.0,3.0,93,0.00,,,0.00,meteohub,2013-07-11 11:12:00,
2013-07-11 07:17:00,66.9,64.8,28.20,North,0,2.0,3.0,93,0.00,,,0.00,meteohub,2013-07-11 11:17:00,
2013-07-11 07:22:00,66.9,64.8,28.20,NW,315,1.0,3.0,93,0.00,,,0.00,meteohub,2013-07-11 11:22:00,
2013-07-11 07:27:00,66.9,65.1,28.19,NW,315,0.0,2.0,94,0.00,,,0.00,meteohub,2013-07-11 11:27:00,
2013-07-11 07:32:00,67.1,65.3,28.19,NW,315,1.0,2.0,94,0.00,,,0.00,meteohub,2013-07-11 11:32:00,
2013-07-11 07:37:00,67.3,65.5,28.19,West,270,0.0,2.0,94,0.00,,,0.00,meteohub,2013-07-11 11:37:00,
2013-07-11 07:42:00,67.5,65.7,28.19,East,90,0.0,2.0,94,0.00,,,0.00,meteohub,2013-07-11 11:42:00,
2013-07-11 07:47:00,67.8,66.0,28.19,NE,45,1.0,2.0,94,0.00,,,0.00,meteohub,2013-07-11 11:47:00,
2013-07-11 07:52:00,68.2,65.8,28.19,NE,45,2.0,3.0,92,0.00,,,0.00,meteohub,2013-07-11 11:52:00,
2013-07-11 07:57:00,68.4,66.0,28.19,North,0,1.0,3.0,92,0.00,,,0.00,meteohub,2013-07-11 11:57:00,
2013-07-11 08:02:00,69.3,66.9,28.19,NE,45,2.0,3.0,92,0.00,,,0.00,meteohub,2013-07-11 12:02:00,
2013-07-11 08:07:00,69.8,66.4,28.19,East,90,3.0,4.0,89,0.00,,,0.00,meteohub,2013-07-11 12:07:00,
2013-07-11 08:12:00,70.0,65.7,28.20,NE,45,4.0,4.0,86,0.00,,,0.00,meteohub,2013-07-11 12:12:00,
2013-07-11 08:17:00,70.2,65.1,28.20,North,0,3.0,4.0,84,0.00,,,0.00,meteohub,2013-07-11 12:17:00,
2013-07-11 08:22:00,70.7,65.7,28.20,North,0,4.0,4.0,84,0.00,,,0.00,meteohub,2013-07-11 12:22:00,
2013-07-11 08:27:00,70.7,64.6,28.20,North,0,4.0,5.0,81,0.00,,,0.00,meteohub,2013-07-11 12:27:00,
2013-07-11 08:32:00,70.7,64.6,28.20,North,0,3.0,5.0,81,0.00,,,0.00,meteohub,2013-07-11 12:32:00,
2013-07-11 08:37:00,70.9,64.8,28.20,North,0,3.0,5.0,81,0.00,,,0.00,meteohub,2013-07-11 12:37:00,
2013-07-11 08:42:00,70.7,64.2,28.20,NE,45,2.0,5.0,80,0.00,,,0.00,meteohub,2013-07-11 12:42:00,
2013-07-11 08:47:00,70.7,64.6,28.20,NW,315,4.0,4.0,81,0.00,,,0.00,meteohub,2013-07-11 12:47:00,
2013-07-11 08:52:00,70.5,64.4,28.20,NW,315,2.0,4.0,81,0.00,,,0.00,meteohub,2013-07-11 12:52:00,
2013-07-11 08:57:00,70.5,64.4,28.20,North,0,7.0,7.0,81,0.00,,,0.00,meteohub,2013-07-11 12:57:00,
2013-07-11 09:02:00,70.3,63.9,28.20,NE,45,4.0,7.0,80,0.00,,,0.00,meteohub,2013-07-11 13:02:00,
2013-07-11 09:07:00,70.2,63.7,28.21,NE,45,4.0,7.0,80,0.00,,,0.00,meteohub,2013-07-11 13:07:00,
2013-07-11 09:12:00,70.2,64.0,28.20,North,0,6.0,7.0,81,0.00,,,0.00,meteohub,2013-07-11 13:12:00,
2013-07-11 09:17:00,70.2,63.7,28.20,North,0,2.0,7.0,80,0.00,,,0.00,meteohub,2013-07-11 13:17:00,
2013-07-11 09:22:00,70.0,63.5,28.20,East,90,6.0,7.0,80,0.00,,,0.00,meteohub,2013-07-11 13:22:00,
2013-07-11 09:27:00,70.0,63.5,28.21,NNE,23,3.0,8.0,80,0.00,,,0.00,meteohub,2013-07-11 13:27:00,
2013-07-11 09:33:00,70.3,63.9,28.21,NE,45,4.0,8.0,80,0.00,,,0.00,meteohub,2013-07-11 13:33:00,
2013-07-11 09:38:00,71.4,64.6,28.21,NE,45,5.0,8.0,79,0.00,,,0.00,meteohub,2013-07-11 13:38:00,
2013-07-11 09:43:00,72.5,64.6,28.21,North,0,4.0,6.0,76,0.00,,,0.00,meteohub,2013-07-11 13:43:00,
2013-07-11 09:48:00,73.0,63.9,28.20,North,0,8.0,8.0,73,0.00,,,0.00,meteohub,2013-07-11 13:48:00,
2013-07-11 09:54:00,73.6,64.4,28.21,North,0,5.0,8.0,73,0.00,,,0.00,meteohub,2013-07-11 13:54:00,
2013-07-11 09:59:00,73.2,63.7,28.21,NW,315,10.0,10.0,72,0.00,,,0.00,meteohub,2013-07-11 13:59:00,
2013-07-11 10:04:00,73.0,62.6,28.21,North,0,8.0,10.0,70,0.00,,,0.00,meteohub,2013-07-11 14:04:00,
2013-07-11 10:10:00,73.4,63.5,28.21,North,0,9.0,10.0,71,0.00,,,0.00,meteohub,2013-07-11 14:10:00,
2013-07-11 10:16:00,74.3,64.2,28.21,North,0,7.0,11.0,71,0.00,,,0.00,meteohub,2013-07-11 14:16:00,
2013-07-11 10:21:00,74.7,62.1,28.21,North,0,6.0,11.0,65,0.00,,,0.00,meteohub,2013-07-11 14:21:00,
2013-07-11 10:27:00,75.2,62.6,28.21,North,0,2.0,11.0,65,0.00,,,0.00,meteohub,2013-07-11 14:27:00,
2013-07-11 10:32:00,76.8,63.7,28.20,North,0,5.0,11.0,64,0.00,,,0.00,meteohub,2013-07-11 14:32:00,
2013-07-11 10:37:00,77.0,62.6,28.21,NE,45,3.0,8.0,61,0.00,,,0.00,meteohub,2013-07-11 14:37:00,
2013-07-11 10:42:00,77.9,63.3,28.21,North,0,4.0,7.0,61,0.00,,,0.00,meteohub,2013-07-11 14:42:00,
2013-07-11 10:47:00,78.1,61.2,28.20,NE,45,4.0,7.0,56,0.00,,,0.00,meteohub,2013-07-11 14:47:00,
2013-07-11 10:52:00,78.4,58.3,28.21,North,0,7.0,7.0,50,0.00,,,0.00,meteohub,2013-07-11 14:52:00,
2013-07-11 10:57:00,78.3,58.6,28.21,NW,315,4.0,8.0,51,0.00,,,0.00,meteohub,2013-07-11 14:57:00,
2013-07-11 11:03:00,78.8,58.6,28.21,North,0,12.0,12.0,50,0.00,,,0.00,meteohub,2013-07-11 15:03:00,
2013-07-11 11:08:00,78.3,55.2,28.21,NE,45,8.0,12.0,45,0.00,,,0.00,meteohub,2013-07-11 15:08:00,
2013-07-11 11:14:00,78.1,56.3,28.21,NW,315,16.0,16.0,47,0.00,,,0.00,meteohub,2013-07-11 15:14:00,
2013-07-11 11:19:00,78.3,55.8,28.21,NE,45,11.0,16.0,46,0.00,,,0.00,meteohub,2013-07-11 15:19:00,
2013-07-11 11:25:00,78.4,56.5,28.22,North,0,8.0,16.0,47,0.00,,,0.00,meteohub,2013-07-11 15:25:00,
2013-07-11 11:30:00,78.8,57.4,28.22,NNE,23,9.0,16.0,48,0.00,,,0.00,meteohub,2013-07-11 15:30:00,
2013-07-11 11:35:00,79.0,58.1,28.21,North,0,8.0,14.0,49,0.00,,,0.00,meteohub,2013-07-11 15:35:00,
2013-07-11 11:40:00,78.6,58.5,28.22,NW,315,4.0,11.0,50,0.00,,,0.00,meteohub,2013-07-11 15:40:00,
2013-07-11 11:46:00,79.0,57.6,28.22,NE,45,4.0,11.0,48,0.00,,,0.00,meteohub,2013-07-11 15:46:00,
2013-07-11 11:52:00,79.7,58.3,28.21,North,0,4.0,11.0,48,0.00,,,0.00,meteohub,2013-07-11 15:52:00,
2013-07-11 11:57:00,79.3,57.9,28.21,West,270,7.0,8.0,48,0.00,,,0.00,meteohub,2013-07-11 15:57:00,
2013-07-11 12:02:00,78.8,57.4,28.22,NW,315,9.0,9.0,48,0.00,,,0.00,meteohub,2013-07-11 16:02:00,
2013-07-11 12:07:00,78.3,57.6,28.21,North,0,6.0,9.0,49,0.00,,,0.00,meteohub,2013-07-11 16:07:00,
2013-07-11 12:12:00,78.1,57.9,28.21,West,270,4.0,9.0,50,0.00,,,0.00,meteohub,2013-07-11 16:12:00,
2013-07-11 12:17:00,77.4,55.0,28.21,East,90,8.0,11.0,46,0.00,,,0.00,meteohub,2013-07-11 16:17:00,
2013-07-11 12:22:00,76.3,56.8,28.22,North,0,3.0,11.0,51,0.00,,,0.00,meteohub,2013-07-11 16:22:00,
2013-07-11 12:27:00,76.3,57.4,28.22,North,0,4.0,11.0,52,0.00,,,0.00,meteohub,2013-07-11 16:27:00,
2013-07-11 12:32:00,77.0,58.1,28.22,North,0,8.0,8.0,52,0.00,,,0.00,meteohub,2013-07-11 16:32:00,
2013-07-11 12:37:00,77.9,57.2,28.22,North,0,7.0,8.0,49,0.00,,,0.00,meteohub,2013-07-11 16:37:00,
2013-07-11 12:42:00,77.5,56.8,28.21,North,0,7.0,8.0,49,0.00,,,0.00,meteohub,2013-07-11 16:42:00,
2013-07-11 12:47:00,77.9,57.7,28.22,WNW,293,6.0,10.0,50,0.00,,,0.00,meteohub,2013-07-11 16:47:00,
2013-07-11 12:52:00,78.4,57.7,28.21,NE,45,4.0,10.0,49,0.00,,,0.00,meteohub,2013-07-11 16:52:00,
2013-07-11 12:57:00,78.3,56.3,28.21,North,0,8.0,10.0,47,0.00,,,0.00,meteohub,2013-07-11 16:57:00,
2013-07-11 13:02:00,78.3,58.1,28.22,NE,45,5.0,9.0,50,0.00,,,0.00,meteohub,2013-07-11 17:02:00,
2013-07-11 13:07:00,78.4,58.3,28.22,North,0,8.0,9.0,50,0.00,,,0.00,meteohub,2013-07-11 17:07:00,
2013-07-11 13:12:00,78.3,57.6,28.22,West,270,4.0,11.0,49,0.00,,,0.00,meteohub,2013-07-11 17:12:00,
2013-07-11 13:17:00,78.6,58.5,28.22,West,270,4.0,11.0,50,0.00,,,0.00,meteohub,2013-07-11 17:17:00,
2013-07-11 13:22:00,79.2,57.7,28.22,North,0,2.0,11.0,48,0.00,,,0.00,meteohub,2013-07-11 17:22:00,
2013-07-11 13:27:00,79.9,58.5,28.21,ENE,68,2.0,9.0,48,0.00,,,0.00,meteohub,2013-07-11 17:27:00,
2013-07-11 13:32:00,79.9,56.7,28.22,North,0,5.0,9.0,45,0.00,,,0.00,meteohub,2013-07-11 17:32:00,
2013-07-11 13:37:00,79.3,57.9,28.22,NE,45,8.0,9.0,48,0.00,,,0.00,meteohub,2013-07-11 17:37:00,
2013-07-11 13:42:00,79.3,58.5,28.21,North,0,4.0,9.0,49,0.00,,,0.00,meteohub,2013-07-11 17:42:00,
2013-07-11 13:47:00,79.2,58.3,28.22,SSE,158,5.0,9.0,49,0.00,,,0.00,meteohub,2013-07-11 17:47:00,
2013-07-11 13:52:00,79.2,55.4,28.22,North,0,5.0,9.0,44,0.00,,,0.00,meteohub,2013-07-11 17:52:00,
2013-07-11 13:59:00,77.7,55.9,28.22,North,0,4.0,9.0,47,0.00,,,0.00,meteohub,2013-07-11 17:59:00,
2013-07-11 14:04:00,77.4,56.1,28.22,West,270,3.0,9.0,48,0.00,,,0.00,meteohub,2013-07-11 18:04:00,
2013-07-11 14:09:00,77.0,58.1,28.22,West,270,3.0,9.0,52,0.00,,,0.00,meteohub,2013-07-11 18:09:00,
2013-07-11 14:15:00,77.0,58.6,28.22,East,90,4.0,8.0,53,0.00,,,0.00,meteohub,2013-07-11 18:15:00,
2013-07-11 14:20:00,76.8,58.5,28.22,NW,315,6.0,8.0,53,0.00,,,0.00,meteohub,2013-07-11 18:20:00,
2013-07-11 14:26:00,77.4,56.1,28.22,NE,45,7.0,11.0,48,0.00,,,0.00,meteohub,2013-07-11 18:26:00,
2013-07-11 14:31:00,77.7,56.5,28.21,North,0,4.0,11.0,48,0.00,,,0.00,meteohub,2013-07-11 18:31:00,
2013-07-11 14:36:00,78.4,57.7,28.22,North,0,6.0,11.0,49,0.00,,,0.00,meteohub,2013-07-11 18:36:00,
2013-07-11 14:42:00,78.4,57.7,28.22,North,0,9.0,14.0,49,0.00,,,0.00,meteohub,2013-07-11 18:42:00,
2013-07-11 14:47:00,78.4,58.3,28.22,North,0,5.0,14.0,50,0.00,,,0.00,meteohub,2013-07-11 18:47:00,
2013-07-11 14:52:00,78.4,57.7,28.22,North,0,9.0,14.0,49,0.00,,,0.00,meteohub,2013-07-11 18:52:00,
2013-07-11 14:57:00,77.9,57.7,28.22,NW,315,7.0,14.0,50,0.00,,,0.00,meteohub,2013-07-11 18:57:00,
2013-07-11 15:02:00,77.2,57.7,28.22,NE,45,3.0,12.0,51,0.00,,,0.00,meteohub,2013-07-11 19:02:00,
2013-07-11 15:07:00,76.3,56.8,28.22,North,0,9.0,12.0,51,0.00,,,0.00,meteohub,2013-07-11 19:07:00,
2013-07-11 15:12:00,75.7,57.9,28.22,NW,315,14.0,14.0,54,0.00,,,0.00,meteohub,2013-07-11 19:12:00,
2013-07-11 15:17:00,75.4,56.5,28.23,NE,45,12.0,14.0,52,0.00,,,0.00,meteohub,2013-07-11 19:17:00,
2013-07-11 15:23:00,75.9,57.0,28.23,North,0,4.0,14.0,52,0.00,,,0.00,meteohub,2013-07-11 19:23:00,
2013-07-11 15:29:00,76.3,57.4,28.23,NE,45,8.0,14.0,52,0.00,,,0.00,meteohub,2013-07-11 19:29:00,
2013-07-11 15:34:00,76.3,57.4,28.23,North,0,4.0,12.0,52,0.00,,,0.00,meteohub,2013-07-11 19:34:00,
2013-07-11 15:40:00,76.3,56.8,28.23,North,0,8.0,9.0,51,0.00,,,0.00,meteohub,2013-07-11 19:40:00,
2013-07-11 15:45:00,77.4,56.1,28.22,North,0,15.0,15.0,48,0.00,,,0.00,meteohub,2013-07-11 19:45:00,
2013-07-11 15:51:00,77.0,57.0,28.23,NNW,338,8.0,15.0,50,0.00,,,0.00,meteohub,2013-07-11 19:51:00,
2013-07-11 15:56:00,77.2,54.9,28.23,NE,45,10.0,15.0,46,0.00,,,0.00,meteohub,2013-07-11 19:56:00,
2013-07-11 16:02:00,76.6,54.3,28.23,North,0,11.0,15.0,46,0.00,,,0.00,meteohub,2013-07-11 20:02:00,
2013-07-11 16:07:00,76.6,54.9,28.23,NW,315,13.0,13.0,47,0.00,,,0.00,meteohub,2013-07-11 20:07:00,
2013-07-11 16:12:00,76.3,54.0,28.23,North,0,8.0,15.0,46,0.00,,,0.00,meteohub,2013-07-11 20:12:00,
2013-07-11 16:17:00,76.3,54.5,28.23,NW,315,6.0,15.0,47,0.00,,,0.00,meteohub,2013-07-11 20:17:00,
2013-07-11 16:22:00,76.6,54.9,28.23,East,90,8.0,15.0,47,0.00,,,0.00,meteohub,2013-07-11 20:22:00,
2013-07-11 16:27:00,76.3,54.0,28.23,East,90,11.0,11.0,46,0.00,,,0.00,meteohub,2013-07-11 20:27:00,
2013-07-11 16:32:00,75.9,52.5,28.23,West,270,9.0,14.0,44,0.00,,,0.00,meteohub,2013-07-11 20:32:00,
2013-07-11 16:38:00,75.9,53.1,28.23,NW,315,6.0,14.0,45,0.00,,,0.00,meteohub,2013-07-11 20:38:00,
2013-07-11 16:43:00,76.3,53.4,28.23,NE,45,9.0,14.0,45,0.00,,,0.00,meteohub,2013-07-11 20:43:00,
2013-07-11 16:48:00,76.3,53.4,28.23,NW,315,4.0,14.0,45,0.00,,,0.00,meteohub,2013-07-11 20:48:00,
2013-07-11 16:54:00,76.6,53.1,28.23,North,0,11.0,14.0,44,0.00,,,0.00,meteohub,2013-07-11 20:54:00,
2013-07-11 16:59:00,76.3,52.7,28.23,East,90,9.0,14.0,44,0.00,,,0.00,meteohub,2013-07-11 20:59:00,
2013-07-11 17:05:00,76.3,52.7,28.23,North,0,8.0,11.0,44,0.00,,,0.00,meteohub,2013-07-11 21:05:00,
2013-07-11 17:10:00,76.8,52.7,28.23,ESE,113,5.0,11.0,43,0.00,,,0.00,meteohub,2013-07-11 21:10:00,
2013-07-11 17:15:00,76.8,53.2,28.23,WNW,293,10.0,11.0,44,0.00,,,0.00,meteohub,2013-07-11 21:15:00,
2013-07-11 17:20:00,76.5,51.6,28.23,North,0,6.0,11.0,42,0.00,,,0.00,meteohub,2013-07-11 21:20:00,
2013-07-11 17:26:00,76.6,53.1,28.23,NE,45,5.0,11.0,44,0.00,,,0.00,meteohub,2013-07-11 21:26:00,
2013-07-11 17:31:00,76.6,53.1,28.23,North,0,5.0,12.0,44,0.00,,,0.00,meteohub,2013-07-11 21:31:00,
2013-07-11 17:36:00,76.3,52.7,28.23,NE,45,8.0,12.0,44,0.00,,,0.00,meteohub,2013-07-11 21:36:00,
2013-07-11 17:41:00,76.3,53.4,28.23,East,90,5.0,12.0,45,0.00,,,0.00,meteohub,2013-07-11 21:41:00,
2013-07-11 17:47:00,76.6,54.9,28.23,NW,315,6.0,10.0,47,0.00,,,0.00,meteohub,2013-07-11 21:47:00,
2013-07-11 17:52:00,76.8,54.5,28.23,WNW,293,4.0,9.0,46,0.00,,,0.00,meteohub,2013-07-11 21:52:00,
2013-07-11 17:57:00,76.8,53.2,28.23,NW,315,7.0,9.0,44,0.00,,,0.00,meteohub,2013-07-11 21:57:00,
2013-07-11 18:02:00,76.3,53.4,28.23,NW,315,4.0,11.0,45,0.00,,,0.00,meteohub,2013-07-11 22:02:00,
2013-07-11 18:08:00,76.3,54.0,28.24,East,90,4.0,11.0,46,0.00,,,0.00,meteohub,2013-07-11 22:08:00,
2013-07-11 18:13:00,76.8,56.8,28.24,NE,45,4.0,11.0,50,0.00,,,0.00,meteohub,2013-07-11 22:13:00,
2013-07-11 18:19:00,76.6,54.9,28.24,NE,45,8.0,8.0,47,0.00,,,0.00,meteohub,2013-07-11 22:19:00,
2013-07-11 18:25:00,75.6,54.0,28.24,NNE,23,4.0,8.0,47,0.00,,,0.00,meteohub,2013-07-11 22:25:00,
2013-07-11 18:30:00,74.8,54.3,28.24,NE,45,5.0,9.0,49,0.00,,,0.00,meteohub,2013-07-11 22:30:00,
2013-07-11 18:35:00,74.7,54.9,28.24,North,0,6.0,9.0,50,0.00,,,0.00,meteohub,2013-07-11 22:35:00,
2013-07-11 18:40:00,74.5,54.7,28.25,NE,45,9.0,9.0,50,0.00,,,0.00,meteohub,2013-07-11 22:40:00,
2013-07-11 18:46:00,74.3,55.0,28.25,North,0,4.0,10.0,51,0.00,,,0.00,meteohub,2013-07-11 22:46:00,
2013-07-11 18:51:00,74.3,55.0,28.25,NE,45,6.0,10.0,51,0.00,,,0.00,meteohub,2013-07-11 22:51:00,
2013-07-11 18:57:00,74.5,55.8,28.25,North,0,7.0,10.0,52,0.00,,,0.00,meteohub,2013-07-11 22:57:00,
2013-07-11 19:02:00,74.5,55.8,28.26,NNE,23,5.0,8.0,52,0.00,,,0.00,meteohub,2013-07-11 23:02:00,
2013-07-11 19:07:00,74.3,55.6,28.25,North,0,4.0,8.0,52,0.00,,,0.00,meteohub,2013-07-11 23:07:00,
2013-07-11 19:12:00,74.1,55.9,28.25,NW,315,4.0,8.0,53,0.00,,,0.00,meteohub,2013-07-11 23:12:00,
2013-07-11 19:17:00,73.9,55.8,28.25,NW,315,3.0,8.0,53,0.00,,,0.00,meteohub,2013-07-11 23:17:00,
2013-07-11 19:22:00,73.8,56.7,28.25,NNW,338,3.0,5.0,55,0.00,,,0.00,meteohub,2013-07-11 23:22:00,
2013-07-11 19:27:00,73.4,55.8,28.26,NE,45,4.0,8.0,54,0.00,,,0.00,meteohub,2013-07-11 23:27:00,
2013-07-11 19:32:00,73.4,56.3,28.26,NE,45,4.0,8.0,55,0.00,,,0.00,meteohub,2013-07-11 23:32:00,
2013-07-11 19:37:00,73.4,56.7,28.27,NW,315,2.0,8.0,56,0.00,,,0.00,meteohub,2013-07-11 23:37:00,
2013-07-11 19:42:00,73.2,57.6,28.27,NW,315,2.0,8.0,58,0.00,,,0.00,meteohub,2013-07-11 23:42:00,
2013-07-11 19:47:00,73.0,57.4,28.27,North,0,2.0,8.0,58,0.00,,,0.00,meteohub,2013-07-11 23:47:00,
2013-07-11 19:52:00,72.9,57.7,28.27,North,0,2.0,5.0,59,0.00,,,0.00,meteohub,2013-07-11 23:52:00,
2013-07-11 19:57:00,72.5,57.7,28.27,NW,315,2.0,5.0,60,0.00,,,0.00,meteohub,2013-07-11 23:57:00,
2013-07-11 20:02:00,72.3,57.7,28.27,NE,45,2.0,4.0,60,0.00,,,0.00,meteohub,2013-07-12 00:02:00,
2013-07-11 20:07:00,72.0,58.3,28.27,NW,315,2.0,3.0,62,0.00,,,0.00,meteohub,2013-07-12 00:07:00,
2013-07-11 20:12:00,71.4,59.0,28.28,NW,315,2.0,4.0,65,0.00,,,0.00,meteohub,2013-07-12 00:12:00,
2013-07-11 20:17:00,71.2,58.8,28.28,NW,315,1.0,4.0,65,0.00,,,0.00,meteohub,2013-07-12 00:17:00,
2013-07-11 20:22:00,70.7,58.8,28.28,NW,315,0.0,4.0,66,0.00,,,0.00,meteohub,2013-07-12 00:22:00,
2013-07-11 20:28:00,70.2,58.3,28.28,North,0,2.0,3.0,66,0.00,,,0.00,meteohub,2013-07-12 00:28:00,
2013-07-11 20:34:00,69.8,58.3,28.28,NW,315,1.0,2.0,67,0.00,,,0.00,meteohub,2013-07-12 00:34:00,
2013-07-11 20:39:00,69.4,59.2,28.28,North,0,0.0,2.0,70,0.00,,,0.00,meteohub,2013-07-12 00:39:00,
2013-07-11 20:44:00,69.1,58.8,28.28,North,0,2.0,2.0,70,0.00,,,0.00,meteohub,2013-07-12 00:44:00,
2013-07-11 20:50:00,68.4,58.6,28.28,West,270,1.0,2.0,71,0.00,,,0.00,meteohub,2013-07-12 00:50:00,
2013-07-11 20:55:00,68.2,58.8,28.29,NE,45,2.0,2.0,72,0.00,,,0.00,meteohub,2013-07-12 00:55:00,
2013-07-11 21:00:00,67.8,58.8,28.29,NW,315,1.0,2.0,73,0.00,,,0.00,meteohub,2013-07-12 01:00:00,
2013-07-11 21:05:00,67.5,58.8,28.29,NE,45,0.0,2.0,74,0.00,,,0.00,meteohub,2013-07-12 01:05:00,
2013-07-11 21:10:00,67.1,58.8,28.29,North,0,1.0,2.0,75,0.00,,,0.00,meteohub,2013-07-12 01:10:00,
2013-07-11 21:15:00,66.7,59.0,28.30,NW,315,2.0,3.0,76,0.00,,,0.00,meteohub,2013-07-12 01:15:00,
2013-07-11 21:20:00,66.4,59.0,28.30,SW,225,1.0,3.0,77,0.00,,,0.00,meteohub,2013-07-12 01:20:00,
2013-07-11 21:25:00,66.0,59.4,28.30,North,0,1.0,3.0,79,0.00,,,0.00,meteohub,2013-07-12 01:25:00,
2013-07-11 21:31:00,65.7,59.4,28.30,North,0,1.0,2.0,80,0.00,,,0.00,meteohub,2013-07-12 01:31:00,
2013-07-11 21:36:00,65.5,59.2,28.30,North,0,1.0,2.0,80,0.00,,,0.00,meteohub,2013-07-12 01:36:00,
2013-07-11 21:41:00,65.1,59.2,28.30,NE,45,1.0,2.0,81,0.00,,,0.00,meteohub,2013-07-12 01:41:00,
2013-07-11 21:46:00,64.9,59.4,28.30,North,0,1.0,3.0,82,0.00,,,0.00,meteohub,2013-07-12 01:46:00,
2013-07-11 21:51:00,64.8,59.2,28.30,NW,315,2.0,3.0,82,0.00,,,0.00,meteohub,2013-07-12 01:51:00,
2013-07-11 21:57:00,64.8,59.5,28.30,North,0,0.0,3.0,83,0.00,,,0.00,meteohub,2013-07-12 01:57:00,
2013-07-11 22:02:00,64.6,59.4,28.30,North,0,2.0,3.0,83,0.00,,,0.00,meteohub,2013-07-12 02:02:00,
2013-07-11 22:07:00,64.4,59.2,28.31,WNW,293,2.0,2.0,83,0.00,,,0.00,meteohub,2013-07-12 02:07:00,
2013-07-11 22:12:00,64.2,59.0,28.31,NE,45,2.0,3.0,83,0.00,,,0.00,meteohub,2013-07-12 02:12:00,
2013-07-11 22:17:00,64.0,59.2,28.31,NE,45,2.0,3.0,84,0.00,,,0.00,meteohub,2013-07-12 02:17:00,
2013-07-11 22:23:00,63.9,59.0,28.31,SE,135,2.0,3.0,84,0.00,,,0.00,meteohub,2013-07-12 02:23:00,
2013-07-11 22:29:00,63.7,58.8,28.32,South,180,0.0,2.0,84,0.00,,,0.00,meteohub,2013-07-12 02:29:00,
2013-07-11 22:35:00,63.5,58.8,28.31,South,180,0.0,2.0,85,0.00,,,0.00,meteohub,2013-07-12 02:35:00,
2013-07-11 22:40:00,63.3,59.0,28.31,SE,135,0.0,2.0,86,0.00,,,0.00,meteohub,2013-07-12 02:40:00,
2013-07-11 22:45:00,63.1,58.8,28.32,NW,315,1.0,2.0,86,0.00,,,0.00,meteohub,2013-07-12 02:45:00,
2013-07-11 22:51:00,62.8,58.5,28.32,NW,315,0.0,2.0,86,0.00,,,0.00,meteohub,2013-07-12 02:51:00,
2013-07-11 22:57:00,62.8,58.8,28.32,East,90,0.0,2.0,87,0.00,,,0.00,meteohub,2013-07-12 02:57:00,
2013-07-11 23:02:00,62.6,58.6,28.32,North,0,1.0,2.0,87,0.00,,,0.00,meteohub,2013-07-12 03:02:00,
2013-07-11 23:07:00,62.4,59.2,28.32,SW,225,0.0,2.0,89,0.00,,,0.00,meteohub,2013-07-12 03:07:00,
2013-07-11 23:12:00,62.2,59.0,28.32,North,0,2.0,2.0,89,0.00,,,0.00,meteohub,2013-07-12 03:12:00,
2013-07-11 23:17:00,62.2,59.0,28.32,East,90,2.0,2.0,89,0.00,,,0.00,meteohub,2013-07-12 03:17:00,
2013-07-11 23:22:00,62.2,59.0,28.32,NE,45,0.0,2.0,89,0.00,,,0.00,meteohub,2013-07-12 03:22:00,
2013-07-11 23:27:00,62.2,59.2,28.32,NE,45,1.0,2.0,90,0.00,,,0.00,meteohub,2013-07-12 03:27:00,
2013-07-11 23:32:00,62.2,59.2,28.32,North,0,2.0,2.0,90,0.00,,,0.00,meteohub,2013-07-12 03:32:00,
2013-07-11 23:37:00,62.4,59.4,28.32,East,90,0.0,2.0,90,0.00,,,0.00,meteohub,2013-07-12 03:37:00,
2013-07-11 23:42:00,62.2,59.2,28.32,West,270,2.0,2.0,90,0.00,,,0.00,meteohub,2013-07-12 03:42:00,
2013-07-11 23:47:00,62.4,59.7,28.33,West,270,1.0,5.0,91,0.00,,,0.00,meteohub,2013-07-12 03:47:00,
2013-07-11 23:52:00,62.4,59.7,28.32,NE,45,2.0,5.0,91,0.00,,,0.00,meteohub,2013-07-12 03:52:00,
2013-07-11 23:58:00,62.4,59.7,28.33,North,0,2.0,5.0,91,0.00,,,0.00,meteohub,2013-07-12 03:58:00,